createdAt,value
2024-04-08T00:04:37.501Z,40.1
2024-04-08T00:09:58.270Z,40.1
2024-04-08T00:15:19.146Z,40.1
2024-04-08T00:20:41.031Z,40
2024-04-08T00:26:01.952Z,40
2024-04-08T00:31:23.088Z,39.9
2024-04-08T00:36:29.424Z,39.9
2024-04-08T00:41:53.560Z,39.9
2024-04-08T00:47:14.425Z,39.9
2024-04-08T00:52:36.547Z,39.9
2024-04-08T00:57:57.784Z,39.8
2024-04-08T01:03:18.623Z,39.8
2024-04-08T01:14:17.820Z,39.8
2024-04-08T01:19:53.784Z,39.7
2024-04-08T01:25:30.870Z,39.7
2024-04-08T01:31:12.332Z,39.7
2024-04-08T01:36:48.927Z,39.6
2024-04-08T01:41:55.346Z,39.6
2024-04-08T01:47:31.804Z,39.6
2024-04-08T01:52:52.998Z,39.6
2024-04-08T01:58:14.335Z,39.6
2024-04-08T02:03:51.521Z,39.5
2024-04-08T02:09:28.173Z,39.5
2024-04-08T02:15:04.581Z,39.4
2024-04-08T02:20:25.647Z,39.4
2024-04-08T02:26:02.661Z,39.4
2024-04-08T02:31:39.940Z,39.4
2024-04-08T02:37:16.871Z,39.4
2024-04-08T02:42:54.348Z,39.3
2024-04-08T02:48:31.337Z,39.3
2024-04-08T02:54:07.457Z,39.3
2024-04-08T02:59:30.673Z,39.3
2024-04-08T03:04:51.856Z,39.2
2024-04-08T03:10:16.827Z,39.2
2024-04-08T03:15:41.155Z,39.1
2024-04-08T03:21:02.392Z,39.1
2024-04-08T03:26:23.363Z,39.1
2024-04-08T03:32:03.634Z,39.1
2024-04-08T03:37:41.102Z,39.1
2024-04-08T03:43:20.043Z,39
2024-04-08T03:48:56.182Z,39
2024-04-08T03:54:35.791Z,39
2024-04-08T04:00:13.882Z,38.9
2024-04-08T04:05:50.061Z,38.9
2024-04-08T04:11:26.794Z,38.9
2024-04-08T04:17:02.799Z,38.9
2024-04-08T04:22:39.512Z,38.8
2024-04-08T04:28:00.295Z,38.8
2024-04-08T04:33:38.881Z,38.8
2024-04-08T04:39:16.107Z,38.8
2024-04-08T04:44:53.143Z,38.7
2024-04-08T04:50:29.383Z,38.7
2024-04-08T04:56:07.059Z,38.7
2024-04-08T05:01:28.523Z,38.6
2024-04-08T05:07:05.062Z,38.6
2024-04-08T05:12:41.609Z,38.6
2024-04-08T05:18:20.781Z,38.6
2024-04-08T05:23:56.853Z,38.6
2024-04-08T05:29:35.763Z,38.5
2024-04-08T05:35:13.308Z,38.5
2024-04-08T05:40:50.487Z,38.4
2024-04-08T05:46:12.363Z,38.4
2024-04-08T05:51:49.903Z,38.4
2024-04-08T05:57:26.712Z,38.4
2024-04-08T06:03:03.683Z,38.4
2024-04-08T06:08:40.347Z,38.3
2024-04-08T06:14:17.287Z,38.3
2024-04-08T06:19:53.667Z,38.3
2024-04-08T06:25:32.350Z,38.3
2024-04-08T06:31:10.606Z,37.7
2024-04-08T06:36:47.465Z,37.8
2024-04-08T06:42:24.790Z,38
2024-04-08T06:48:02.253Z,38
2024-04-08T06:53:42.935Z,38.1
2024-04-08T06:59:19.731Z,38.4
2024-04-08T07:04:58.283Z,38.9
2024-04-08T07:10:35.438Z,39.3
2024-04-08T07:16:16.572Z,39.7
2024-04-08T07:21:55.497Z,40.1
2024-04-08T07:27:33.611Z,40.4
2024-04-08T07:32:55.476Z,40.8
2024-04-08T07:38:35.583Z,41.2
2024-04-08T07:44:26.744Z,41.6
2024-04-08T07:50:04.011Z,42
2024-04-08T07:55:41.560Z,42.4
2024-04-08T08:01:21.952Z,42.8
2024-04-08T08:06:59.460Z,43.3
2024-04-08T08:12:35.709Z,43.8
2024-04-08T08:18:17.428Z,44.3
2024-04-08T08:23:59.037Z,44.8
2024-04-08T08:29:21.332Z,45.3
2024-04-08T08:34:58.694Z,45.8
2024-04-08T08:40:36.388Z,45.9
2024-04-08T08:46:13.286Z,45.9
2024-04-08T08:51:35.415Z,45.9
2024-04-08T08:57:12.296Z,45.8
2024-04-08T09:02:53.984Z,45.8
2024-04-08T09:08:36.368Z,45.7
2024-04-08T09:14:13.605Z,45.7
2024-04-08T09:19:35.147Z,45.6
2024-04-08T09:24:56.967Z,45.6
2024-04-08T09:30:39.313Z,45.5
2024-04-08T09:36:16.249Z,45.5
2024-04-08T09:41:37.844Z,45.4
2024-04-08T09:47:14.814Z,45.4
2024-04-08T09:52:56.291Z,45.3
2024-04-08T09:58:27.002Z,45.3
2024-04-08T10:03:48.164Z,45.3
2024-04-08T10:08:56.901Z,45.2
2024-04-08T10:14:21.219Z,45.2
2024-04-08T10:19:43.989Z,45.1
2024-04-08T10:24:58.307Z,45.1
2024-04-08T10:30:19.900Z,45
2024-04-08T10:35:44.396Z,45
2024-04-08T10:41:24.113Z,44.9
2024-04-08T10:47:02.694Z,44.8
2024-04-08T10:52:40.343Z,44.8
2024-04-08T10:58:18.047Z,44.8
2024-04-08T11:03:57.131Z,44.8
2024-04-08T11:09:35.578Z,44.7
2024-04-08T11:15:12.856Z,44.5
2024-04-08T11:20:38.243Z,44.8
2024-04-08T11:26:18.215Z,45.8
2024-04-08T11:31:53.368Z,46.6
2024-04-08T11:37:35.071Z,47.5
2024-04-08T11:43:27.183Z,48.3
2024-04-08T11:49:13.849Z,49.1
2024-04-08T11:54:45.447Z,49.7
2024-04-08T12:00:30.686Z,50.4
2024-04-08T12:05:52.057Z,51.1
2024-04-08T12:11:28.763Z,51.7
2024-04-08T12:16:51.273Z,52.3
2024-04-08T12:21:59.972Z,52.8
2024-04-08T12:27:36.359Z,53.3
2024-04-08T12:33:16.126Z,53.8
2024-04-08T12:38:37.779Z,54.3
2024-04-08T12:44:11.901Z,54.6
2024-04-08T12:49:49.185Z,54.6
2024-04-08T12:55:14.978Z,54.4
2024-04-08T13:00:38.402Z,54.5
2024-04-08T13:06:00.267Z,55.1
2024-04-08T13:11:25.367Z,55.1
2024-04-08T13:16:20.735Z,55.1
2024-04-08T13:21:43.573Z,55
2024-04-08T13:27:26.835Z,54.9
2024-04-08T13:33:08.568Z,54.9
2024-04-08T13:38:50.341Z,54.8
2024-04-08T13:44:26.242Z,54.8
2024-04-08T13:50:05.109Z,54.7
2024-04-08T13:55:44.378Z,54.6
2024-04-08T14:01:07.299Z,54.5
2024-04-08T14:06:47.095Z,54.5
2024-04-08T14:12:24.323Z,54.4
2024-04-08T14:18:03.645Z,54.4
2024-04-08T14:23:45.157Z,54.3
2024-04-08T14:29:27.153Z,54.2
2024-04-08T14:34:58.998Z,54.1
2024-04-08T14:41:59.764Z,54.1
2024-04-08T14:48:12.534Z,54
2024-04-08T14:54:18.799Z,53.9
2024-04-08T15:00:08.091Z,53.8
2024-04-08T15:05:46.075Z,53.8
2024-04-08T15:11:30.827Z,53.7
2024-04-08T15:17:08.994Z,53.6
2024-04-08T15:22:46.114Z,53.6
2024-04-08T15:28:22.102Z,53.5
2024-04-08T15:34:03.987Z,53.4
2024-04-08T15:39:27.118Z,53.3
2024-04-08T15:45:03.669Z,53.3
2024-04-08T15:50:42.681Z,53.2
2024-04-08T15:56:04.528Z,53.1
2024-04-08T16:01:40.825Z,53.1
2024-04-08T16:07:22.225Z,53
2024-04-08T16:12:59.391Z,52.9
2024-04-08T16:18:37.580Z,52.9
2024-04-08T16:25:02.265Z,52.8
2024-04-08T16:30:27.722Z,52.8
2024-04-08T16:36:05.275Z,52.7
2024-04-08T16:41:43.386Z,52.6
2024-04-08T16:47:20.499Z,52.6
2024-04-08T16:52:57.314Z,52.5
2024-04-08T16:58:19.352Z,52.4
2024-04-08T17:08:49.713Z,52.3
2024-04-08T17:14:28.477Z,52.3
2024-04-08T17:20:07.692Z,52.2
2024-04-08T17:25:28.979Z,52.1
2024-04-08T17:31:06.940Z,52.1
2024-04-08T17:36:32.051Z,52
2024-04-08T17:47:25.143Z,51.9
2024-04-08T17:53:03.997Z,51.8
2024-04-08T17:58:11.815Z,51.7
2024-04-08T18:03:36.524Z,50.8
2024-04-08T18:09:18.810Z,50.3
2024-04-08T18:14:47.805Z,49.8
2024-04-08T18:20:33.373Z,49.4
2024-04-08T18:26:10.203Z,48.9
2024-04-08T18:36:58.107Z,48.4
2024-04-08T18:42:20.037Z,48.2
2024-04-08T18:47:58.768Z,48
2024-04-08T18:53:21.699Z,47.8
2024-04-08T18:59:02.646Z,47.7
2024-04-08T19:04:36.349Z,47.6
2024-04-08T19:15:30.930Z,47.4
2024-04-08T19:21:13.864Z,47.3
2024-04-08T19:26:56.249Z,47.3
2024-04-08T19:32:33.174Z,47.2
2024-04-08T19:38:09.921Z,47.2
2024-04-08T19:43:47.919Z,47.1
2024-04-08T19:49:57.528Z,47.1
2024-04-08T19:55:40.883Z,47.1
2024-04-08T20:01:21.806Z,47.1
2024-04-08T20:06:59.139Z,47
2024-04-08T20:12:36.568Z,47
2024-04-08T20:18:14.779Z,46.9
2024-04-08T20:29:16.102Z,46.9
2024-04-08T20:34:56.561Z,46.9
2024-04-08T20:40:18.060Z,46.9
2024-04-08T20:45:54.801Z,46.9
2024-04-08T20:51:38.864Z,46.9
2024-04-08T20:57:06.197Z,46.8
2024-04-08T21:02:13.547Z,46.8
2024-04-08T21:07:37.404Z,46.8
2024-04-08T21:13:14.856Z,46.8
2024-04-08T21:18:21.694Z,46.8
2024-04-08T21:23:45.125Z,46.8
2024-04-08T21:28:35.413Z,46.7
2024-04-08T21:33:41.937Z,46.7
2024-04-08T21:39:04.439Z,46.6
2024-04-08T21:44:28.660Z,46.6
2024-04-08T21:49:50.701Z,46.6
2024-04-08T21:55:12.948Z,46.6
2024-04-08T22:00:34.945Z,46.6
2024-04-08T22:05:57.311Z,46.6
2024-04-08T22:11:19.832Z,46.5
2024-04-08T22:16:41.775Z,46.5
2024-04-08T22:22:07.211Z,46.5
2024-04-08T22:27:31.102Z,46.5
2024-04-08T22:32:52.916Z,46.4
2024-04-08T22:37:59.898Z,46.4
2024-04-08T22:43:48.542Z,46.4
2024-04-08T22:49:09.706Z,46.4
2024-04-08T22:54:31.069Z,46.4
2024-04-08T23:00:08.884Z,46.3
2024-04-08T23:05:20.257Z,46.3
2024-04-08T23:10:44.168Z,46.3
2024-04-08T23:16:07.057Z,46.3
2024-04-08T23:21:32.490Z,46.3
2024-04-08T23:26:56.380Z,46.3
2024-04-08T23:32:34.577Z,46.2
2024-04-08T23:37:57.768Z,46.2
2024-04-08T23:42:48.987Z,46.1
2024-04-08T23:48:11.862Z,46.1
2024-04-08T23:53:32.896Z,46.1
2024-04-08T23:58:53.482Z,46.1
